Aviation Digital Data Service (ADDS)

Output produced by METARs form (1141 UTC 17 December 2018)
found at http://aviationweather.gov/metar/data/
 
KLFK 170542Z 1706/1806 00000KT P6SM OVC200 
     TEMPO 1711/1715 5SM BR 
     FM171500 22004KT P6SM BKN250 
     FM180000 00000KT P6SM BKN250